sensor_id;sensor_type;location;lat;lon;timestamp;pressure;altitude;pressure_sealevel;temperature;humidity
83631;BME280;73593;52.134;5.426;2023-11-18T00:02:08;102454.88;;;2.93;93.42
83631;BME280;73593;52.134;5.426;2023-11-18T00:04:37;102452.28;;;2.93;94.19
83631;BME280;73593;52.134;5.426;2023-11-18T00:07:04;102453.06;;;2.97;93.73
83631;BME280;73593;52.134;5.426;2023-11-18T00:09:30;102459.13;;;2.99;93.69
83631;BME280;73593;52.134;5.426;2023-11-18T00:11:57;102453.03;;;2.99;93.47
83631;BME280;73593;52.134;5.426;2023-11-18T00:14:26;102449.50;;;3.01;93.84
83631;BME280;73593;52.134;5.426;2023-11-18T00:16:53;102452.03;;;3.04;94.24
83631;BME280;73593;52.134;5.426;2023-11-18T00:19:28;102459.84;;;3.06;93.97
83631;BME280;73593;52.134;5.426;2023-11-18T00:21:55;102460.78;;;3.03;94.09
83631;BME280;73593;52.134;5.426;2023-11-18T00:24:24;102455.50;;;3.05;94.44
83631;BME280;73593;52.134;5.426;2023-11-18T00:26:51;102460.63;;;3.09;94.07
83631;BME280;73593;52.134;5.426;2023-11-18T00:29:19;102464.16;;;3.08;94.50
83631;BME280;73593;52.134;5.426;2023-11-18T00:31:49;102453.69;;;3.08;93.87
83631;BME280;73593;52.134;5.426;2023-11-18T00:34:18;102442.31;;;3.09;94.47
83631;BME280;73593;52.134;5.426;2023-11-18T00:36:45;102440.63;;;3.07;94.31
83631;BME280;73593;52.134;5.426;2023-11-18T00:39:16;102438.03;;;3.05;93.59
83631;BME280;73593;52.134;5.426;2023-11-18T00:41:50;102438.09;;;3.04;94.02
83631;BME280;73593;52.134;5.426;2023-11-18T00:44:16;102432.03;;;3.02;93.80
83631;BME280;73593;52.134;5.426;2023-11-18T00:46:44;102437.28;;;3.02;94.12
83631;BME280;73593;52.134;5.426;2023-11-18T00:49:11;102439.91;;;3.02;93.97
83631;BME280;73593;52.134;5.426;2023-11-18T00:51:37;102445.19;;;2.99;94.01
83631;BME280;73593;52.134;5.426;2023-11-18T00:54:07;102452.16;;;2.98;93.80
83631;BME280;73593;52.134;5.426;2023-11-18T00:56:34;102450.50;;;2.95;93.96
83631;BME280;73593;52.134;5.426;2023-11-18T00:59:00;102448.69;;;2.97;94.22
83631;BME280;73593;52.134;5.426;2023-11-18T01:01:33;102457.53;;;2.92;94.05
83631;BME280;73593;52.134;5.426;2023-11-18T01:03:59;102469.00;;;2.86;93.95
83631;BME280;73593;52.134;5.426;2023-11-18T01:06:26;102472.47;;;2.87;93.89
83631;BME280;73593;52.134;5.426;2023-11-18T01:08:55;102468.09;;;2.87;94.11
83631;BME280;73593;52.134;5.426;2023-11-18T01:11:22;102469.81;;;2.90;93.84
83631;BME280;73593;52.134;5.426;2023-11-18T01:13:49;102470.63;;;2.92;93.96
83631;BME280;73593;52.134;5.426;2023-11-18T01:16:16;102460.97;;;2.94;93.79
83631;BME280;73593;52.134;5.426;2023-11-18T01:18:46;102472.19;;;2.99;93.78
83631;BME280;73593;52.134;5.426;2023-11-18T01:21:12;102468.53;;;3.08;93.93
83631;BME280;73593;52.134;5.426;2023-11-18T01:23:41;102472.75;;;3.13;94.01
83631;BME280;73593;52.134;5.426;2023-11-18T01:26:12;102476.94;;;3.20;94.44
83631;BME280;73593;52.134;5.426;2023-11-18T01:28:41;102469.81;;;3.27;94.26
83631;BME280;73593;52.134;5.426;2023-11-18T01:31:10;102470.53;;;3.34;94.30
83631;BME280;73593;52.134;5.426;2023-11-18T01:33:38;102470.38;;;3.40;94.41
83631;BME280;73593;52.134;5.426;2023-11-18T01:36:07;102467.66;;;3.43;94.55
83631;BME280;73593;52.134;5.426;2023-11-18T01:38:37;102472.84;;;3.46;94.73
83631;BME280;73593;52.134;5.426;2023-11-18T01:41:07;102466.69;;;3.47;94.71
83631;BME280;73593;52.134;5.426;2023-11-18T01:43:36;102467.50;;;3.49;94.94
83631;BME280;73593;52.134;5.426;2023-11-18T01:46:05;102466.63;;;3.50;94.72
83631;BME280;73593;52.134;5.426;2023-11-18T01:48:37;102459.59;;;3.52;94.79
83631;BME280;73593;52.134;5.426;2023-11-18T01:51:08;102462.16;;;3.54;94.88
83631;BME280;73593;52.134;5.426;2023-11-18T01:53:39;102461.31;;;3.53;94.79
83631;BME280;73593;52.134;5.426;2023-11-18T01:56:09;102463.03;;;3.54;94.88
83631;BME280;73593;52.134;5.426;2023-11-18T01:58:35;102459.47;;;3.57;95.07
83631;BME280;73593;52.134;5.426;2023-11-18T02:01:03;102458.53;;;3.59;95.21
83631;BME280;73593;52.134;5.426;2023-11-18T02:03:35;102457.69;;;3.59;94.97
83631;BME280;73593;52.134;5.426;2023-11-18T02:06:03;102457.69;;;3.59;94.98
83631;BME280;73593;52.134;5.426;2023-11-18T02:08:32;102453.28;;;3.59;95.38
83631;BME280;73593;52.134;5.426;2023-11-18T02:11:14;102459.38;;;3.60;95.00
83631;BME280;73593;52.134;5.426;2023-11-18T02:13:48;102467.19;;;3.61;94.85
83631;BME280;73593;52.134;5.426;2023-11-18T02:16:18;102464.56;;;3.63;94.87
83631;BME280;73593;52.134;5.426;2023-11-18T02:18:49;102464.56;;;3.63;94.97
83631;BME280;73593;52.134;5.426;2023-11-18T02:21:22;102464.56;;;3.63;95.16
83631;BME280;73593;52.134;5.426;2023-11-18T02:23:52;102473.28;;;3.63;94.94
83631;BME280;73593;52.134;5.426;2023-11-18T02:26:23;102468.94;;;3.62;94.94
83631;BME280;73593;52.134;5.426;2023-11-18T02:28:52;102469.81;;;3.63;94.94
83631;BME280;73593;52.134;5.426;2023-11-18T02:31:27;102467.19;;;3.61;95.01
83631;BME280;73593;52.134;5.426;2023-11-18T02:34:08;102466.31;;;3.62;94.67
83631;BME280;73593;52.134;5.426;2023-11-18T02:36:41;102467.19;;;3.63;95.01
83631;BME280;73593;52.134;5.426;2023-11-18T02:39:18;102464.56;;;3.63;94.67
83631;BME280;73593;52.134;5.426;2023-11-18T02:41:51;102459.31;;;3.63;95.00
83631;BME280;73593;52.134;5.426;2023-11-18T02:44:23;102462.81;;;3.63;95.11
83631;BME280;73593;52.134;5.426;2023-11-18T02:46:52;102460.19;;;3.63;94.67
83631;BME280;73593;52.134;5.426;2023-11-18T02:49:26;102455.81;;;3.64;94.85
83631;BME280;73593;52.134;5.426;2023-11-18T02:51:54;102447.94;;;3.64;94.84
83631;BME280;73593;52.134;5.426;2023-11-18T02:54:22;102441.81;;;3.65;94.77
83631;BME280;73593;52.134;5.426;2023-11-18T02:56:52;102437.41;;;3.65;94.82
83631;BME280;73593;52.134;5.426;2023-11-18T02:59:19;102433.91;;;3.66;94.99
83631;BME280;73593;52.134;5.426;2023-11-18T03:01:45;102431.28;;;3.66;94.76
83631;BME280;73593;52.134;5.426;2023-11-18T03:04:12;102427.81;;;3.66;94.98
83631;BME280;73593;52.134;5.426;2023-11-18T03:06:41;102418.19;;;3.66;94.85
83631;BME280;73593;52.134;5.426;2023-11-18T03:09:11;102431.28;;;3.66;95.01
83631;BME280;73593;52.134;5.426;2023-11-18T03:11:37;102429.56;;;3.65;94.52
83631;BME280;73593;52.134;5.426;2023-11-18T03:14:04;102421.75;;;3.64;95.04
83631;BME280;73593;52.134;5.426;2023-11-18T03:16:31;102432.22;;;3.64;94.84
83631;BME280;73593;52.134;5.426;2023-11-18T03:18:58;102431.38;;;3.63;94.76
83631;BME280;73593;52.134;5.426;2023-11-18T03:21:25;102429.63;;;3.64;94.74
83631;BME280;73593;52.134;5.426;2023-11-18T03:23:53;102425.28;;;3.63;94.81
83631;BME280;73593;52.134;5.426;2023-11-18T03:26:21;102421.75;;;3.64;95.10
83631;BME280;73593;52.134;5.426;2023-11-18T03:28:48;102415.63;;;3.65;94.86
83631;BME280;73593;52.134;5.426;2023-11-18T03:31:18;102413.84;;;3.65;94.90
83631;BME280;73593;52.134;5.426;2023-11-18T03:33:46;102412.03;;;3.67;94.89
83631;BME280;73593;52.134;5.426;2023-11-18T03:36:12;102412.03;;;3.69;95.22
83631;BME280;73593;52.134;5.426;2023-11-18T03:38:39;102402.34;;;3.71;94.91
83631;BME280;73593;52.134;5.426;2023-11-18T03:41:08;102398.84;;;3.72;95.11
83631;BME280;73593;52.134;5.426;2023-11-18T03:43:40;102394.41;;;3.74;94.60
83631;BME280;73593;52.134;5.426;2023-11-18T03:46:06;102392.66;;;3.74;95.05
83631;BME280;73593;52.134;5.426;2023-11-18T03:48:37;102389.09;;;3.77;94.81
83631;BME280;73593;52.134;5.426;2023-11-18T03:51:06;102375.13;;;3.76;95.20
83631;BME280;73593;52.134;5.426;2023-11-18T03:53:32;102371.63;;;3.77;94.82
83631;BME280;73593;52.134;5.426;2023-11-18T03:56:07;102368.94;;;3.79;95.00
83631;BME280;73593;52.134;5.426;2023-11-18T03:58:34;102357.56;;;3.80;95.19
83631;BME280;73593;52.134;5.426;2023-11-18T04:01:05;102355.81;;;3.81;95.35
83631;BME280;73593;52.134;5.426;2023-11-18T04:03:32;102355.81;;;3.81;95.24
83631;BME280;73593;52.134;5.426;2023-11-18T04:05:59;102348.81;;;3.81;94.99
83631;BME280;73593;52.134;5.426;2023-11-18T04:08:27;102342.72;;;3.81;94.87
83631;BME280;73593;52.134;5.426;2023-11-18T04:10:57;102337.44;;;3.82;95.42
83631;BME280;73593;52.134;5.426;2023-11-18T04:13:27;102333.06;;;3.83;95.06
83631;BME280;73593;52.134;5.426;2023-11-18T04:15:56;102340.00;;;3.84;95.14
83631;BME280;73593;52.134;5.426;2023-11-18T04:18:25;102346.91;;;3.86;95.10
83631;BME280;73593;52.134;5.426;2023-11-18T04:20:51;102350.41;;;3.87;95.23
83631;BME280;73593;52.134;5.426;2023-11-18T04:23:18;102345.13;;;3.88;95.14
83631;BME280;73593;52.134;5.426;2023-11-18T04:25:45;102334.66;;;3.88;95.21
83631;BME280;73593;52.134;5.426;2023-11-18T04:28:14;102328.44;;;3.91;94.92
83631;BME280;73593;52.134;5.426;2023-11-18T04:30:41;102316.19;;;3.91;95.16
83631;BME280;73593;52.134;5.426;2023-11-18T04:33:15;102311.81;;;3.92;95.08
83631;BME280;73593;52.134;5.426;2023-11-18T04:35:44;102316.16;;;3.93;95.14
83631;BME280;73593;52.134;5.426;2023-11-18T04:38:12;102318.69;;;3.96;95.10
83631;BME280;73593;52.134;5.426;2023-11-18T04:40:39;102302.13;;;3.95;95.21
83631;BME280;73593;52.134;5.426;2023-11-18T04:43:07;102302.06;;;3.97;94.93
83631;BME280;73593;52.134;5.426;2023-11-18T04:45:34;102302.91;;;3.97;94.87
83631;BME280;73593;52.134;5.426;2023-11-18T04:48:03;102302.00;;;4.00;94.96
83631;BME280;73593;52.134;5.426;2023-11-18T04:50:30;102291.50;;;4.00;95.09
83631;BME280;73593;52.134;5.426;2023-11-18T04:52:57;102296.69;;;4.01;94.95
83631;BME280;73593;52.134;5.426;2023-11-18T04:55:23;102284.44;;;4.02;94.93
83631;BME280;73593;52.134;5.426;2023-11-18T04:57:52;102288.78;;;4.03;95.06
83631;BME280;73593;52.134;5.426;2023-11-18T05:00:24;102290.47;;;4.06;94.93
83631;BME280;73593;52.134;5.426;2023-11-18T05:02:51;102290.47;;;4.06;95.44
83631;BME280;73593;52.134;5.426;2023-11-18T05:05:20;102294.75;;;4.08;95.14
83631;BME280;73593;52.134;5.426;2023-11-18T05:07:48;102296.47;;;4.09;95.01
83631;BME280;73593;52.134;5.426;2023-11-18T05:10:15;102295.59;;;4.09;95.01
83631;BME280;73593;52.134;5.426;2023-11-18T05:12:41;102305.13;;;4.11;95.00
83631;BME280;73593;52.134;5.426;2023-11-18T05:15:10;102297.25;;;4.13;95.19
83631;BME280;73593;52.134;5.426;2023-11-18T05:17:37;102291.13;;;4.12;95.17
83631;BME280;73593;52.134;5.426;2023-11-18T05:20:06;102285.00;;;4.13;95.19
83631;BME280;73593;52.134;5.426;2023-11-18T05:22:37;102280.59;;;4.14;95.32
83631;BME280;73593;52.134;5.426;2023-11-18T05:25:04;102272.75;;;4.14;95.14
83631;BME280;73593;52.134;5.426;2023-11-18T05:27:33;102269.22;;;4.15;94.63
83631;BME280;73593;52.134;5.426;2023-11-18T05:30:00;102260.50;;;4.14;94.97
83631;BME280;73593;52.134;5.426;2023-11-18T05:32:30;102267.44;;;4.15;95.09
83631;BME280;73593;52.134;5.426;2023-11-18T05:34:59;102275.25;;;4.17;94.74
83631;BME280;73593;52.134;5.426;2023-11-18T05:37:29;102265.63;;;4.17;95.07
83631;BME280;73593;52.134;5.426;2023-11-18T05:39:56;102268.22;;;4.19;95.11
83631;BME280;73593;52.134;5.426;2023-11-18T05:42:33;102275.16;;;4.20;95.16
83631;BME280;73593;52.134;5.426;2023-11-18T05:45:09;102266.44;;;4.19;95.04
83631;BME280;73593;52.134;5.426;2023-11-18T05:47:48;102264.69;;;4.20;95.02
83631;BME280;73593;52.134;5.426;2023-11-18T05:50:15;102265.53;;;4.20;94.86
83631;BME280;73593;52.134;5.426;2023-11-18T05:52:42;102258.47;;;4.22;94.69
83631;BME280;73593;52.134;5.426;2023-11-18T05:55:13;102256.72;;;4.23;94.90
83631;BME280;73593;52.134;5.426;2023-11-18T05:57:39;102250.59;;;4.24;95.12
83631;BME280;73593;52.134;5.426;2023-11-18T06:00:12;102246.19;;;4.24;94.70
83631;BME280;73593;52.134;5.426;2023-11-18T06:02:52;102235.66;;;4.26;94.78
83631;BME280;73593;52.134;5.426;2023-11-18T06:05:22;102237.38;;;4.27;94.63
83631;BME280;73593;52.134;5.426;2023-11-18T06:07:52;102237.38;;;4.27;94.83
83631;BME280;73593;52.134;5.426;2023-11-18T06:10:20;102241.69;;;4.28;94.71
83631;BME280;73593;52.134;5.426;2023-11-18T06:12:46;102241.66;;;4.29;94.54
83631;BME280;73593;52.134;5.426;2023-11-18T06:15:13;102233.75;;;4.31;94.95
83631;BME280;73593;52.134;5.426;2023-11-18T06:17:43;102225.84;;;4.32;94.74
83631;BME280;73593;52.134;5.426;2023-11-18T06:20:10;102224.91;;;4.34;95.04
83631;BME280;73593;52.134;5.426;2023-11-18T06:22:37;102224.84;;;4.35;94.17
83631;BME280;73593;52.134;5.426;2023-11-18T06:25:06;102228.34;;;4.36;94.47
83631;BME280;73593;52.134;5.426;2023-11-18T06:27:39;102237.03;;;4.38;94.80
83631;BME280;73593;52.134;5.426;2023-11-18T06:30:06;102230.03;;;4.38;94.71
83631;BME280;73593;52.134;5.426;2023-11-18T06:32:33;102229.09;;;4.39;94.34
83631;BME280;73593;52.134;5.426;2023-11-18T06:34:59;102216.84;;;4.40;94.61
83631;BME280;73593;52.134;5.426;2023-11-18T06:37:32;102215.94;;;4.41;94.43
83631;BME280;73593;52.134;5.426;2023-11-18T06:39:59;102217.66;;;4.42;94.34
83631;BME280;73593;52.134;5.426;2023-11-18T06:42:29;102216.78;;;4.43;94.75
83631;BME280;73593;52.134;5.426;2023-11-18T06:44:56;102221.03;;;4.45;94.60
83631;BME280;73593;52.134;5.426;2023-11-18T06:47:24;102227.19;;;4.44;94.17
83631;BME280;73593;52.134;5.426;2023-11-18T06:49:53;102228.91;;;4.45;94.17
83631;BME280;73593;52.134;5.426;2023-11-18T06:52:25;102224.53;;;4.46;94.13
83631;BME280;73593;52.134;5.426;2023-11-18T06:54:55;102218.38;;;4.47;94.53
83631;BME280;73593;52.134;5.426;2023-11-18T06:57:24;102228.84;;;4.47;94.34
83631;BME280;73593;52.134;5.426;2023-11-18T06:59:53;102232.31;;;4.49;94.18
83631;BME280;73593;52.134;5.426;2023-11-18T07:02:19;102231.38;;;4.50;94.22
83631;BME280;73593;52.134;5.426;2023-11-18T07:04:47;102230.53;;;4.49;94.48
83631;BME280;73593;52.134;5.426;2023-11-18T07:07:16;102227.00;;;4.50;94.08
83631;BME280;73593;52.134;5.426;2023-11-18T07:09:45;102221.75;;;4.50;93.89
83631;BME280;73593;52.134;5.426;2023-11-18T07:12:15;102214.69;;;4.52;93.93
83631;BME280;73593;52.134;5.426;2023-11-18T07:14:42;102220.84;;;4.51;93.77
83631;BME280;73593;52.134;5.426;2023-11-18T07:17:09;102229.56;;;4.52;94.49
83631;BME280;73593;52.134;5.426;2023-11-18T07:19:35;102232.25;;;4.50;93.82
83631;BME280;73593;52.134;5.426;2023-11-18T07:22:02;102230.41;;;4.52;94.26
83631;BME280;73593;52.134;5.426;2023-11-18T07:24:33;102230.47;;;4.51;93.82
83631;BME280;73593;52.134;5.426;2023-11-18T07:27:02;102233.88;;;4.53;93.84
83631;BME280;73593;52.134;5.426;2023-11-18T07:29:29;102238.22;;;4.54;94.25
83631;BME280;73593;52.134;5.426;2023-11-18T07:31:58;102243.53;;;4.52;93.91
83631;BME280;73593;52.134;5.426;2023-11-18T07:34:25;102246.16;;;4.52;93.65
83631;BME280;73593;52.134;5.426;2023-11-18T07:36:52;102243.53;;;4.52;93.61
83631;BME280;73593;52.134;5.426;2023-11-18T07:39:22;102252.25;;;4.53;93.60
83631;BME280;73593;52.134;5.426;2023-11-18T07:41:56;102267.97;;;4.54;94.40
83631;BME280;73593;52.134;5.426;2023-11-18T07:44:25;102251.34;;;4.54;93.95
83631;BME280;73593;52.134;5.426;2023-11-18T07:46:52;102253.06;;;4.55;94.04
83631;BME280;73593;52.134;5.426;2023-11-18T07:49:20;102234.72;;;4.55;93.85
83631;BME280;73593;52.134;5.426;2023-11-18T07:51:52;102232.03;;;4.56;93.70
83631;BME280;73593;52.134;5.426;2023-11-18T07:54:18;102229.41;;;4.56;93.81
83631;BME280;73593;52.134;5.426;2023-11-18T07:56:47;102218.00;;;4.57;93.80
83631;BME280;73593;52.134;5.426;2023-11-18T07:59:16;102222.34;;;4.58;94.13
83631;BME280;73593;52.134;5.426;2023-11-18T08:01:45;102210.91;;;4.61;93.62
83631;BME280;73593;52.134;5.426;2023-11-18T08:04:13;102208.28;;;4.61;93.59
83631;BME280;73593;52.134;5.426;2023-11-18T08:06:43;102206.53;;;4.62;93.70
83631;BME280;73593;52.134;5.426;2023-11-18T08:09:12;102203.84;;;4.63;94.06
83631;BME280;73593;52.134;5.426;2023-11-18T08:11:42;102199.38;;;4.65;93.70
83631;BME280;73593;52.134;5.426;2023-11-18T08:14:10;102187.13;;;4.66;94.12
83631;BME280;73593;52.134;5.426;2023-11-18T08:16:39;102190.59;;;4.66;93.68
83631;BME280;73593;52.134;5.426;2023-11-18T08:19:08;102189.72;;;4.67;93.61
83631;BME280;73593;52.134;5.426;2023-11-18T08:21:37;102191.44;;;4.68;93.95
83631;BME280;73593;52.134;5.426;2023-11-18T08:24:08;102183.44;;;4.71;94.03
83631;BME280;73593;52.134;5.426;2023-11-18T08:26:35;102184.25;;;4.73;93.71
83631;BME280;73593;52.134;5.426;2023-11-18T08:29:02;102174.63;;;4.74;93.65
83631;BME280;73593;52.134;5.426;2023-11-18T08:31:29;102179.81;;;4.75;93.68
83631;BME280;73593;52.134;5.426;2023-11-18T08:33:56;102174.44;;;4.78;93.68
83631;BME280;73593;52.134;5.426;2023-11-18T08:36:23;102164.78;;;4.80;93.96
83631;BME280;73593;52.134;5.426;2023-11-18T08:38:52;102166.41;;;4.83;93.67
83631;BME280;73593;52.134;5.426;2023-11-18T08:41:23;102163.69;;;4.86;93.49
83631;BME280;73593;52.134;5.426;2023-11-18T08:43:52;102152.16;;;4.90;93.78
83631;BME280;73593;52.134;5.426;2023-11-18T08:46:22;102149.38;;;4.95;93.50
83631;BME280;73593;52.134;5.426;2023-11-18T08:48:48;102148.44;;;4.97;93.35
83631;BME280;73593;52.134;5.426;2023-11-18T08:51:15;102147.38;;;5.01;93.21
83631;BME280;73593;52.134;5.426;2023-11-18T08:53:43;102151.63;;;5.05;93.38
83631;BME280;73593;52.134;5.426;2023-11-18T08:56:14;102143.63;;;5.08;93.14
83631;BME280;73593;52.134;5.426;2023-11-18T08:58:42;102135.56;;;5.13;93.70
83631;BME280;73593;52.134;5.426;2023-11-18T09:01:11;102135.47;;;5.16;93.48
83631;BME280;73593;52.134;5.426;2023-11-18T09:03:43;102137.13;;;5.19;93.12
83631;BME280;73593;52.134;5.426;2023-11-18T09:06:15;102145.78;;;5.21;93.25
83631;BME280;73593;52.134;5.426;2023-11-18T09:08:46;102122.97;;;5.23;93.03
83631;BME280;73593;52.134;5.426;2023-11-18T09:11:22;102111.44;;;5.27;92.77
83631;BME280;73593;52.134;5.426;2023-11-18T09:13:50;102104.38;;;5.29;92.99
83631;BME280;73593;52.134;5.426;2023-11-18T09:16:21;102103.38;;;5.31;92.55
83631;BME280;73593;52.134;5.426;2023-11-18T09:18:58;102105.91;;;5.34;92.72
83631;BME280;73593;52.134;5.426;2023-11-18T09:21:26;102097.91;;;5.37;92.47
83631;BME280;73593;52.134;5.426;2023-11-18T09:23:55;102077.75;;;5.38;92.25
83631;BME280;73593;52.134;5.426;2023-11-18T09:26:27;102086.47;;;5.38;92.59
83631;BME280;73593;52.134;5.426;2023-11-18T09:28:57;102082.94;;;5.39;92.32
83631;BME280;73593;52.134;5.426;2023-11-18T09:31:24;102078.50;;;5.42;92.29
83631;BME280;73593;52.134;5.426;2023-11-18T09:33:51;102074.94;;;5.43;92.36
83631;BME280;73593;52.134;5.426;2023-11-18T09:36:24;102076.66;;;5.44;92.63
83631;BME280;73593;52.134;5.426;2023-11-18T09:38:50;102067.84;;;5.45;92.41
83631;BME280;73593;52.134;5.426;2023-11-18T09:41:18;102059.00;;;5.47;92.37
83631;BME280;73593;52.134;5.426;2023-11-18T09:43:46;102050.28;;;5.47;92.33
83631;BME280;73593;52.134;5.426;2023-11-18T09:46:26;102029.28;;;5.47;92.52
83631;BME280;73593;52.134;5.426;2023-11-18T09:51:44;102034.56;;;5.45;92.60
83631;BME280;73593;52.134;5.426;2023-11-18T09:57:12;102030.06;;;5.49;92.48
83631;BME280;73593;52.134;5.426;2023-11-18T10:02:54;102039.47;;;5.54;92.86
83631;BME280;73593;52.134;5.426;2023-11-18T10:05:23;102037.69;;;5.55;92.84
83631;BME280;73593;52.134;5.426;2023-11-18T10:07:54;102042.88;;;5.56;93.15
83631;BME280;73593;52.134;5.426;2023-11-18T10:10:27;102041.94;;;5.57;93.01
83631;BME280;73593;52.134;5.426;2023-11-18T10:13:04;102044.53;;;5.59;93.26
83631;BME280;73593;52.134;5.426;2023-11-18T10:15:49;102030.50;;;5.58;93.03
83631;BME280;73593;52.134;5.426;2023-11-18T10:18:18;102013.88;;;5.59;93.15
83631;BME280;73593;52.134;5.426;2023-11-18T10:20:55;102023.44;;;5.60;92.87
83631;BME280;73593;52.134;5.426;2023-11-18T10:23:22;102018.19;;;5.60;92.98
83631;BME280;73593;52.134;5.426;2023-11-18T10:25:54;102025.16;;;5.61;92.98
83631;BME280;73593;52.134;5.426;2023-11-18T10:31:04;102032.03;;;5.64;93.36
83631;BME280;73593;52.134;5.426;2023-11-18T10:33:39;102025.91;;;5.65;92.91
83631;BME280;73593;52.134;5.426;2023-11-18T10:36:22;102030.16;;;5.68;93.42
83631;BME280;73593;52.134;5.426;2023-11-18T10:38:50;102009.06;;;5.69;93.53
83631;BME280;73593;52.134;5.426;2023-11-18T10:41:23;101990.69;;;5.69;93.29
83631;BME280;73593;52.134;5.426;2023-11-18T10:44:06;101994.16;;;5.70;93.64
83631;BME280;73593;52.134;5.426;2023-11-18T10:46:34;101986.22;;;5.71;93.51
83631;BME280;73593;52.134;5.426;2023-11-18T10:49:05;101982.59;;;5.74;93.27
83631;BME280;73593;52.134;5.426;2023-11-18T10:51:36;101972.94;;;5.74;93.49
83631;BME280;73593;52.134;5.426;2023-11-18T10:54:07;101979.91;;;5.75;93.49
83631;BME280;73593;52.134;5.426;2023-11-18T10:56:46;101970.22;;;5.77;93.24
83631;BME280;73593;52.134;5.426;2023-11-18T10:59:13;101968.44;;;5.78;93.45
83631;BME280;73593;52.134;5.426;2023-11-18T11:01:43;101960.56;;;5.78;93.36
83631;BME280;73593;52.134;5.426;2023-11-18T11:04:12;101948.25;;;5.78;93.57
83631;BME280;73593;52.134;5.426;2023-11-18T11:06:44;101952.66;;;5.78;93.68
83631;BME280;73593;52.134;5.426;2023-11-18T11:09:31;101956.06;;;5.80;93.90
83631;BME280;73593;52.134;5.426;2023-11-18T11:12:10;101945.50;;;5.81;93.82
83631;BME280;73593;52.134;5.426;2023-11-18T11:17:23;101941.03;;;5.83;94.05
83631;BME280;73593;52.134;5.426;2023-11-18T11:20:04;101924.41;;;5.83;93.72
83631;BME280;73593;52.134;5.426;2023-11-18T11:23:01;101896.28;;;5.85;93.79
83631;BME280;73593;52.134;5.426;2023-11-18T11:25:46;101882.22;;;5.86;93.97
83631;BME280;73593;52.134;5.426;2023-11-18T11:28:38;101865.53;;;5.87;94.20
83631;BME280;73593;52.134;5.426;2023-11-18T11:34:14;101823.31;;;5.91;93.85
83631;BME280;73593;52.134;5.426;2023-11-18T11:36:46;101811.75;;;5.96;94.27
83631;BME280;73593;52.134;5.426;2023-11-18T11:39:18;101813.38;;;5.98;94.30
83631;BME280;73593;52.134;5.426;2023-11-18T11:41:53;101808.03;;;6.00;94.30
83631;BME280;73593;52.134;5.426;2023-11-18T11:44:24;101817.63;;;6.01;94.11
83631;BME280;73593;52.134;5.426;2023-11-18T11:47:00;101806.13;;;6.03;94.10
83631;BME280;73593;52.134;5.426;2023-11-18T11:49:45;101805.06;;;6.07;94.03
83631;BME280;73593;52.134;5.426;2023-11-18T11:52:36;101807.63;;;6.09;94.08
83631;BME280;73593;52.134;5.426;2023-11-18T11:55:18;101791.72;;;6.12;94.57
83631;BME280;73593;52.134;5.426;2023-11-18T11:57:54;101757.41;;;6.15;94.58
83631;BME280;73593;52.134;5.426;2023-11-18T12:00:24;101747.56;;;6.18;94.26
83631;BME280;73593;52.134;5.426;2023-11-18T12:02:53;101756.25;;;6.21;94.37
83631;BME280;73593;52.134;5.426;2023-11-18T12:05:25;101762.28;;;6.23;94.30
83631;BME280;73593;52.134;5.426;2023-11-18T12:07:53;101752.53;;;6.25;93.62
83631;BME280;73593;52.134;5.426;2023-11-18T12:10:27;101734.97;;;6.25;94.27
83631;BME280;73593;52.134;5.426;2023-11-18T12:13:10;101733.91;;;6.29;94.44
83631;BME280;73593;52.134;5.426;2023-11-18T12:18:21;101720.47;;;6.35;94.20
83631;BME280;73593;52.134;5.426;2023-11-18T12:20:48;101724.66;;;6.39;94.52
83631;BME280;73593;52.134;5.426;2023-11-18T12:23:20;101707.78;;;6.43;94.52
83631;BME280;73593;52.134;5.426;2023-11-18T12:25:52;101712.91;;;6.46;94.52
83631;BME280;73593;52.134;5.426;2023-11-18T12:28:28;101697.91;;;6.49;94.09
83631;BME280;73593;52.134;5.426;2023-11-18T12:31:00;101689.06;;;6.50;93.92
83631;BME280;73593;52.134;5.426;2023-11-18T12:39:40;101660.84;;;6.53;94.14
83631;BME280;73593;52.134;5.426;2023-11-18T12:42:58;101656.34;;;6.55;94.20
83631;BME280;73593;52.134;5.426;2023-11-18T12:45:44;101645.81;;;6.55;94.38
83631;BME280;73593;52.134;5.426;2023-11-18T12:48:21;101642.25;;;6.56;94.40
83631;BME280;73593;52.134;5.426;2023-11-18T12:50:54;101639.63;;;6.56;94.45
83631;BME280;73593;52.134;5.426;2023-11-18T12:53:25;101644.00;;;6.57;94.60
83631;BME280;73593;52.134;5.426;2023-11-18T12:55:53;101604.53;;;6.57;94.53
83631;BME280;73593;52.134;5.426;2023-11-18T12:58:28;101540.47;;;6.58;94.42
83631;BME280;73593;52.134;5.426;2023-11-18T13:00:56;101518.56;;;6.58;94.68
83631;BME280;73593;52.134;5.426;2023-11-18T13:03:26;101526.38;;;6.59;94.16
83631;BME280;73593;52.134;5.426;2023-11-18T13:05:55;101531.72;;;6.58;94.87
83631;BME280;73593;52.134;5.426;2023-11-18T13:08:25;101525.59;;;6.57;94.83
83631;BME280;73593;52.134;5.426;2023-11-18T13:10:53;101518.47;;;6.59;94.88
83631;BME280;73593;52.134;5.426;2023-11-18T13:13:20;101539.44;;;6.61;94.92
83631;BME280;73593;52.134;5.426;2023-11-18T13:15:49;101538.50;;;6.62;94.94
83631;BME280;73593;52.134;5.426;2023-11-18T13:18:17;101533.19;;;6.63;95.09
83631;BME280;73593;52.134;5.426;2023-11-18T13:20:54;101539.19;;;6.65;94.95
83631;BME280;73593;52.134;5.426;2023-11-18T13:23:21;101549.63;;;6.67;94.80
83631;BME280;73593;52.134;5.426;2023-11-18T13:25:49;101555.75;;;6.67;94.94
83631;BME280;73593;52.134;5.426;2023-11-18T13:28:24;101535.47;;;6.69;95.09
83631;BME280;73593;52.134;5.426;2023-11-18T13:30:51;101527.59;;;6.69;95.05
83631;BME280;73593;52.134;5.426;2023-11-18T13:33:18;101518.81;;;6.69;94.73
83631;BME280;73593;52.134;5.426;2023-11-18T13:35:51;101512.66;;;6.70;94.85
83631;BME280;73593;52.134;5.426;2023-11-18T13:38:18;101521.28;;;6.72;94.83
83631;BME280;73593;52.134;5.426;2023-11-18T13:40:46;101503.72;;;6.72;94.80
83631;BME280;73593;52.134;5.426;2023-11-18T13:43:16;101490.47;;;6.74;94.79